createdAt,value
2023-02-19T00:01:31.357Z,17.23
2023-02-19T00:04:05.272Z,17.70
2023-02-19T00:06:32.593Z,16.55
2023-02-19T00:08:59.301Z,16.35
2023-02-19T00:11:31.320Z,15.90
2023-02-19T00:13:58.520Z,15.88
2023-02-19T00:16:29.462Z,13.52
2023-02-19T00:19:05.519Z,13.00
2023-02-19T00:21:32.186Z,13.98
2023-02-19T00:24:03.744Z,13.30
2023-02-19T00:26:35.144Z,23.70
2023-02-19T00:29:04.059Z,25.95
2023-02-19T00:31:33.799Z,25.55
2023-02-19T00:34:04.930Z,24.05
2023-02-19T00:36:35.068Z,24.77
2023-02-19T00:39:04.579Z,24.77
2023-02-19T00:41:31.237Z,23.90
2023-02-19T00:43:58.538Z,22.83
2023-02-19T00:46:28.561Z,21.88
2023-02-19T00:48:57.520Z,22.15
2023-02-19T00:51:27.483Z,22.30
2023-02-19T00:53:54.207Z,21.98
2023-02-19T00:56:22.233Z,22.25
2023-02-19T00:58:48.891Z,22.60
2023-02-19T01:01:15.743Z,20.52
2023-02-19T01:03:42.458Z,22.52
2023-02-19T01:06:09.969Z,20.25
2023-02-19T01:08:39.376Z,20.85
2023-02-19T01:11:09.198Z,20.45
2023-02-19T01:13:36.176Z,20.70
2023-02-19T01:16:10.639Z,21.38
2023-02-19T01:18:39.541Z,17.77
2023-02-19T01:21:12.850Z,19.67
2023-02-19T01:23:41.814Z,19.30
2023-02-19T01:26:09.761Z,19.27
2023-02-19T01:28:36.474Z,19.33
2023-02-19T01:31:04.177Z,19.33
2023-02-19T01:33:33.610Z,18.75
2023-02-19T01:36:02.680Z,19.90
2023-02-19T01:38:31.501Z,17.75
2023-02-19T01:41:02.799Z,18.45
2023-02-19T01:43:29.490Z,17.23
2023-02-19T01:45:58.430Z,18.33
2023-02-19T01:48:38.393Z,17.40
2023-02-19T01:51:07.271Z,17.60
2023-02-19T01:53:36.670Z,16.95
2023-02-19T01:56:05.548Z,17.17
2023-02-19T01:58:33.861Z,17.00
2023-02-19T02:01:03.512Z,17.02
2023-02-19T02:03:30.289Z,16.00
2023-02-19T02:06:04.871Z,16.67
2023-02-19T02:08:50.500Z,16.73
2023-02-19T02:11:19.464Z,17.17
2023-02-19T02:13:46.241Z,16.00
2023-02-19T02:16:55.090Z,15.40
2023-02-19T02:19:32.393Z,16.02
2023-02-19T02:22:16.464Z,15.70
2023-02-19T02:25:21.530Z,15.32
2023-02-19T02:28:02.353Z,15.50
2023-02-19T02:30:35.816Z,16.05
2023-02-19T02:33:14.596Z,15.25
2023-02-19T02:36:03.901Z,15.68
2023-02-19T02:38:32.030Z,14.32
2023-02-19T02:40:58.844Z,14.82
2023-02-19T02:43:28.158Z,15.05
2023-02-19T02:45:55.032Z,13.88
2023-02-19T02:48:40.212Z,13.77
2023-02-19T02:51:12.420Z,12.82
2023-02-19T02:54:02.980Z,13.77
2023-02-19T02:56:31.783Z,14.23
2023-02-19T02:58:58.865Z,13.70
2023-02-19T03:01:48.553Z,13.05
2023-02-19T03:05:01.348Z,14.02
2023-02-19T03:07:33.045Z,14.25
2023-02-19T03:10:01.877Z,13.15
2023-02-19T03:12:47.092Z,12.18
2023-02-19T03:15:32.160Z,13.25
2023-02-19T03:18:21.996Z,11.95
2023-02-19T03:20:50.924Z,12.60
2023-02-19T03:23:20.293Z,13.23
2023-02-19T03:26:05.235Z,11.48
2023-02-19T03:28:51.852Z,11.85
2023-02-19T03:31:22.601Z,11.38
2023-02-19T03:33:52.196Z,11.98
2023-02-19T03:36:25.701Z,12.60
2023-02-19T03:38:59.235Z,11.27
2023-02-19T03:41:47.124Z,11.07
2023-02-19T03:44:25.554Z,11.70
2023-02-19T03:46:58.426Z,11.77
2023-02-19T03:49:40.258Z,11.95
2023-02-19T03:52:21.616Z,11.75
2023-02-19T03:57:35.482Z,10.75
2023-02-19T04:00:16.275Z,11.32
2023-02-19T04:03:04.682Z,10.50
2023-02-19T04:05:35.906Z,11.60
2023-02-19T04:10:39.102Z,10.20
2023-02-19T04:13:14.616Z,11.48
2023-02-19T04:15:41.781Z,11.23
2023-02-19T04:18:13.092Z,11.40
2023-02-19T04:20:42.971Z,10.73
2023-02-19T04:23:11.762Z,10.85
2023-02-19T04:25:41.573Z,10.05
2023-02-19T04:28:09.634Z,10.90
2023-02-19T04:30:41.117Z,10.40
2023-02-19T04:33:07.769Z,10.10
2023-02-19T04:35:36.640Z,10.73
2023-02-19T04:38:05.514Z,10.57
2023-02-19T04:40:32.120Z,10.38
2023-02-19T04:42:58.860Z,9.73
2023-02-19T04:45:27.653Z,9.65
2023-02-19T04:47:54.289Z,9.23
2023-02-19T04:50:23.414Z,9.63
2023-02-19T04:52:50.107Z,11.20
2023-02-19T04:55:20.011Z,9.90
2023-02-19T04:57:46.688Z,9.45
2023-02-19T05:00:16.162Z,9.65
2023-02-19T05:02:47.963Z,9.82
2023-02-19T05:05:14.696Z,10.73
2023-02-19T05:07:41.411Z,9.38
2023-02-19T05:10:08.268Z,9.32
2023-02-19T05:12:34.879Z,9.85
2023-02-19T05:15:01.550Z,9.93
2023-02-19T05:17:28.159Z,9.32
2023-02-19T05:19:54.853Z,9.52
2023-02-19T05:22:24.673Z,9.27
2023-02-19T05:24:51.338Z,9.18
2023-02-19T05:27:20.230Z,9.20
2023-02-19T05:29:49.020Z,8.85
2023-02-19T05:32:18.764Z,9.25
2023-02-19T05:34:47.539Z,8.45
2023-02-19T05:37:16.343Z,9.20
2023-02-19T05:39:45.271Z,8.73
2023-02-19T05:42:13.857Z,8.70
2023-02-19T05:44:42.740Z,8.73
2023-02-19T05:47:11.729Z,8.90
2023-02-19T05:49:38.406Z,8.48
2023-02-19T05:52:05.230Z,8.48
2023-02-19T05:54:34.052Z,8.93
2023-02-19T05:57:00.699Z,8.50
2023-02-19T05:59:27.548Z,8.55
2023-02-19T06:01:54.743Z,8.45
2023-02-19T06:04:21.439Z,8.27
2023-02-19T06:06:48.125Z,8.48
2023-02-19T06:09:16.930Z,8.13
2023-02-19T06:11:44.151Z,9.10
2023-02-19T06:14:14.802Z,8.27
2023-02-19T06:16:41.591Z,7.85
2023-02-19T06:19:08.442Z,8.80
2023-02-19T06:21:35.114Z,7.78
2023-02-19T06:24:06.485Z,7.80
2023-02-19T06:26:35.695Z,8.35
2023-02-19T06:29:04.523Z,7.93
2023-02-19T06:31:33.392Z,8.32
2023-02-19T06:34:07.356Z,8.30
2023-02-19T06:36:35.268Z,8.50
2023-02-19T06:39:02.354Z,8.27
2023-02-19T06:41:29.049Z,8.27
2023-02-19T06:43:57.583Z,8.18
2023-02-19T06:46:26.668Z,8.70
2023-02-19T06:48:53.299Z,8.13
2023-02-19T06:51:22.753Z,8.07
2023-02-19T06:53:52.086Z,7.90
2023-02-19T06:56:38.398Z,8.20
2023-02-19T06:59:07.007Z,8.57
2023-02-19T07:01:36.624Z,7.88
2023-02-19T07:04:03.672Z,7.55
2023-02-19T07:06:35.814Z,7.85
2023-02-19T07:09:05.641Z,7.35
2023-02-19T07:11:36.560Z,7.85
2023-02-19T07:14:04.278Z,7.78
2023-02-19T07:16:31.181Z,7.80
2023-02-19T07:18:58.434Z,7.60
2023-02-19T07:21:27.216Z,7.32
2023-02-19T07:23:53.945Z,8.05
2023-02-19T07:26:22.989Z,7.10
2023-02-19T07:28:52.809Z,7.55
2023-02-19T07:31:20.561Z,7.50
2023-02-19T07:33:50.046Z,7.72
2023-02-19T07:36:20.754Z,7.60
2023-02-19T07:38:49.116Z,7.50
2023-02-19T07:41:17.972Z,7.32
2023-02-19T07:43:47.304Z,7.80
2023-02-19T07:46:14.600Z,7.93
2023-02-19T07:48:42.595Z,7.13
2023-02-19T07:51:16.620Z,7.43
2023-02-19T07:53:45.430Z,7.28
2023-02-19T07:56:15.238Z,8.30
2023-02-19T07:58:48.754Z,9.77
2023-02-19T08:01:41.484Z,8.93
2023-02-19T08:04:10.888Z,8.23
2023-02-19T08:06:39.900Z,8.50
2023-02-19T08:09:08.700Z,8.57
2023-02-19T08:11:53.730Z,8.70
2023-02-19T08:14:20.370Z,8.98
2023-02-19T08:16:53.395Z,8.10
2023-02-19T08:19:22.362Z,8.32
2023-02-19T08:21:51.354Z,8.48
2023-02-19T08:24:20.179Z,8.82
2023-02-19T08:26:49.143Z,8.68
2023-02-19T08:29:15.730Z,8.18
2023-02-19T08:31:42.844Z,8.82
2023-02-19T08:34:09.816Z,9.27
2023-02-19T08:36:36.750Z,8.77
2023-02-19T08:39:06.046Z,9.18
2023-02-19T08:41:33.187Z,9.77
2023-02-19T08:44:03.035Z,9.55
2023-02-19T08:46:34.352Z,10.20
2023-02-19T08:49:03.438Z,9.60
2023-02-19T08:51:33.860Z,11.73
2023-02-19T08:54:03.458Z,15.17
2023-02-19T08:56:30.738Z,20.33
2023-02-19T08:58:57.574Z,25.45
2023-02-19T09:01:24.294Z,30.05
2023-02-19T09:03:55.727Z,34.50
2023-02-19T09:06:22.797Z,41.03
2023-02-19T09:08:49.551Z,44.95
2023-02-19T09:11:18.420Z,47.28
2023-02-19T09:13:47.452Z,56.30
2023-02-19T09:16:16.343Z,65.03
2023-02-19T09:18:43.200Z,78.00
2023-02-19T09:21:10.195Z,97.32
2023-02-19T09:23:40.212Z,99.55
2023-02-19T09:26:11.422Z,100.35
2023-02-19T09:31:12.586Z,116.53
2023-02-19T09:36:13.427Z,123.35
2023-02-19T09:38:40.665Z,131.48
2023-02-19T09:41:15.707Z,142.15
2023-02-19T09:43:45.361Z,133.40
2023-02-19T09:46:29.243Z,132.10
2023-02-19T09:48:59.390Z,137.70
2023-02-19T09:51:26.177Z,137.27
2023-02-19T09:53:55.220Z,138.00
2023-02-19T09:56:26.754Z,132.13
2023-02-19T09:58:55.418Z,134.88
2023-02-19T10:01:24.298Z,140.35
2023-02-19T10:03:50.960Z,133.38
2023-02-19T10:06:25.186Z,132.82
2023-02-19T10:08:56.704Z,130.10
2023-02-19T10:11:26.289Z,127.00
2023-02-19T10:14:05.484Z,131.98
2023-02-19T10:16:34.473Z,131.75
2023-02-19T10:19:01.170Z,125.20
2023-02-19T10:21:28.077Z,124.72
2023-02-19T10:24:02.994Z,122.10
2023-02-19T10:26:36.855Z,125.00
2023-02-19T10:29:04.382Z,124.05
2023-02-19T10:31:31.537Z,123.82
2023-02-19T10:34:00.439Z,122.95
2023-02-19T10:36:35.008Z,114.88
2023-02-19T10:39:06.247Z,119.13
2023-02-19T10:44:16.592Z,116.15
2023-02-19T10:46:48.187Z,115.15
2023-02-19T10:49:38.789Z,113.80
2023-02-19T10:52:23.621Z,113.17
2023-02-19T10:54:56.282Z,113.95
2023-02-19T10:57:32.802Z,109.65
2023-02-19T11:00:19.379Z,109.95
2023-02-19T11:02:46.039Z,107.85
2023-02-19T11:05:14.473Z,107.15
2023-02-19T11:07:51.195Z,107.97
2023-02-19T11:10:28.580Z,105.03
2023-02-19T11:12:59.931Z,107.88
2023-02-19T11:15:34.321Z,106.63
2023-02-19T11:18:13.099Z,103.53
2023-02-19T11:20:49.308Z,104.93
2023-02-19T11:23:22.263Z,106.85
2023-02-19T11:25:49.682Z,101.60
2023-02-19T11:28:35.679Z,103.07
2023-02-19T11:31:22.870Z,99.30
2023-02-19T11:33:49.465Z,99.13
2023-02-19T11:36:16.122Z,96.30
2023-02-19T11:38:45.436Z,96.65
2023-02-19T11:41:19.902Z,96.68
2023-02-19T11:43:49.911Z,94.07
2023-02-19T11:46:23.070Z,95.68
2023-02-19T11:49:11.074Z,92.13
2023-02-19T11:52:02.545Z,89.18
2023-02-19T11:54:48.804Z,90.95
2023-02-19T11:57:40.210Z,87.72
2023-02-19T12:03:20.146Z,87.47
2023-02-19T12:06:02.074Z,87.97
2023-02-19T12:08:34.777Z,86.47
2023-02-19T12:11:20.132Z,86.10
2023-02-19T12:14:05.646Z,85.70
2023-02-19T12:16:43.839Z,86.63
2023-02-19T12:19:29.263Z,82.22
2023-02-19T12:21:55.841Z,82.13
2023-02-19T12:24:37.383Z,83.03
2023-02-19T12:27:22.504Z,82.40
2023-02-19T12:30:19.903Z,81.45
2023-02-19T12:33:04.792Z,79.97
2023-02-19T12:35:54.785Z,81.18
2023-02-19T12:38:35.199Z,79.13
2023-02-19T12:41:11.825Z,75.53
2023-02-19T12:43:40.764Z,80.53
2023-02-19T12:46:20.223Z,78.05
2023-02-19T12:48:53.478Z,75.70
2023-02-19T12:51:44.346Z,77.05
2023-02-19T12:54:15.128Z,77.28
2023-02-19T12:57:07.905Z,73.63
2023-02-19T12:59:44.018Z,72.88
2023-02-19T13:02:28.033Z,72.88
2023-02-19T13:05:19.489Z,70.10
2023-02-19T13:10:52.803Z,66.55
2023-02-19T13:13:22.024Z,65.82
2023-02-19T13:15:54.039Z,61.88
2023-02-19T13:18:26.277Z,64.55
2023-02-19T13:20:55.897Z,60.78
2023-02-19T13:23:46.642Z,62.20
2023-02-19T13:26:44.154Z,61.13
2023-02-19T13:29:35.094Z,60.65
2023-02-19T13:32:40.525Z,60.60
2023-02-19T13:35:18.117Z,57.30
2023-02-19T13:37:46.915Z,58.05
2023-02-19T13:40:39.908Z,56.17
2023-02-19T13:43:08.029Z,56.72
2023-02-19T13:45:41.979Z,54.72
2023-02-19T13:48:14.410Z,55.05
2023-02-19T13:50:41.389Z,54.70
2023-02-19T13:53:54.126Z,52.38
2023-02-19T13:56:30.140Z,54.17
2023-02-19T13:59:36.053Z,52.28
2023-02-19T14:02:02.733Z,52.97
2023-02-19T14:04:32.401Z,52.97
2023-02-19T14:07:05.144Z,53.38
2023-02-19T14:09:34.492Z,52.30
2023-02-19T14:12:10.511Z,51.13
2023-02-19T14:15:07.025Z,50.90
2023-02-19T14:17:39.988Z,49.72
2023-02-19T14:20:09.763Z,49.95
2023-02-19T14:22:57.472Z,49.30
2023-02-19T14:25:35.886Z,51.35
2023-02-19T14:28:21.078Z,50.55
2023-02-19T14:30:55.119Z,49.20
2023-02-19T14:33:29.105Z,48.08
2023-02-19T14:36:34.539Z,48.85
2023-02-19T14:39:08.089Z,47.67
2023-02-19T14:41:38.726Z,46.15
2023-02-19T14:44:06.085Z,46.90
2023-02-19T14:46:42.110Z,46.28
2023-02-19T14:49:36.483Z,45.58
2023-02-19T14:52:09.972Z,43.70
2023-02-19T14:54:50.289Z,44.05
2023-02-19T14:57:27.419Z,45.67
2023-02-19T14:59:58.876Z,43.10
2023-02-19T15:02:28.709Z,43.00
2023-02-19T15:04:55.557Z,42.22
2023-02-19T15:07:30.289Z,43.55
2023-02-19T15:10:05.567Z,44.65
2023-02-19T15:12:39.937Z,41.25
2023-02-19T15:15:07.289Z,40.00
2023-02-19T15:17:39.797Z,41.40
2023-02-19T15:20:11.764Z,42.40
2023-02-19T15:22:39.894Z,41.55
2023-02-19T15:25:08.686Z,39.97
2023-02-19T15:27:37.605Z,39.67
2023-02-19T15:30:04.448Z,40.13
2023-02-19T15:32:33.209Z,39.80
2023-02-19T15:35:01.581Z,39.38
2023-02-19T15:37:32.856Z,38.88
2023-02-19T15:40:01.163Z,39.95
2023-02-19T15:42:32.012Z,38.75
2023-02-19T15:45:02.723Z,39.50
2023-02-19T15:47:33.273Z,38.03
2023-02-19T15:50:12.581Z,38.13
2023-02-19T15:53:10.387Z,37.80
2023-02-19T15:55:41.366Z,36.67
2023-02-19T15:58:20.347Z,36.75
2023-02-19T16:00:49.823Z,35.17
2023-02-19T16:03:25.696Z,35.60
2023-02-19T16:06:01.622Z,36.58
2023-02-19T16:08:38.962Z,35.42
2023-02-19T16:11:29.426Z,35.20
2023-02-19T16:14:19.279Z,35.05
2023-02-19T16:16:46.797Z,35.15
2023-02-19T16:19:13.460Z,33.60
2023-02-19T16:21:44.145Z,34.83
2023-02-19T16:24:16.873Z,33.42
2023-02-19T16:26:46.707Z,34.00
2023-02-19T16:29:32.960Z,34.63
2023-02-19T16:32:01.626Z,32.80
2023-02-19T16:34:39.527Z,32.50
2023-02-19T16:37:30.295Z,31.75
2023-02-19T16:40:37.827Z,32.00
2023-02-19T16:43:04.422Z,31.67
2023-02-19T16:45:33.537Z,30.58
2023-02-19T16:48:04.880Z,31.83
2023-02-19T16:50:36.317Z,32.08
2023-02-19T16:53:05.793Z,31.50
2023-02-19T16:55:34.625Z,30.42
2023-02-19T16:58:01.361Z,28.90
2023-02-19T17:00:33.298Z,31.95
2023-02-19T17:03:09.011Z,31.05
2023-02-19T17:05:38.141Z,29.48
2023-02-19T17:08:26.553Z,31.10
2023-02-19T17:10:55.836Z,29.25
2023-02-19T17:13:25.380Z,27.98
2023-02-19T17:15:52.012Z,28.90
2023-02-19T17:18:21.575Z,28.40
2023-02-19T17:20:59.696Z,29.55
2023-02-19T17:23:26.473Z,28.75
2023-02-19T17:25:55.359Z,28.42
2023-02-19T17:28:24.361Z,28.73
2023-02-19T17:30:53.286Z,28.60
2023-02-19T17:33:20.010Z,27.85
2023-02-19T17:35:49.013Z,26.73
2023-02-19T17:38:18.595Z,25.75
2023-02-19T17:40:47.408Z,26.15
2023-02-19T17:43:14.720Z,26.52
2023-02-19T17:45:41.621Z,26.35
2023-02-19T17:48:15.049Z,26.73
2023-02-19T17:50:44.143Z,26.92
2023-02-19T17:53:12.958Z,25.98
2023-02-19T17:55:39.685Z,26.50
2023-02-19T17:58:06.384Z,25.05
2023-02-19T18:00:36.654Z,24.42
2023-02-19T18:03:03.858Z,25.10
2023-02-19T18:05:32.911Z,24.30
2023-02-19T18:07:59.525Z,25.25
2023-02-19T18:10:30.999Z,24.90
2023-02-19T18:13:00.413Z,24.90
2023-02-19T18:15:27.010Z,24.17
2023-02-19T18:17:54.246Z,23.48
2023-02-19T18:20:28.104Z,22.55
2023-02-19T18:22:55.268Z,23.05
2023-02-19T18:25:22.090Z,23.80
2023-02-19T18:27:48.862Z,23.45
2023-02-19T18:30:18.450Z,23.02
2023-02-19T18:32:48.576Z,22.65
2023-02-19T18:35:18.352Z,22.13
2023-02-19T18:37:45.093Z,22.27
2023-02-19T18:40:12.152Z,21.88
2023-02-19T18:42:41.477Z,21.98
2023-02-19T18:45:08.270Z,22.60
2023-02-19T18:47:37.073Z,22.30
2023-02-19T18:50:08.373Z,21.67
2023-02-19T18:52:34.970Z,20.45
2023-02-19T18:55:03.821Z,22.02
2023-02-19T18:57:32.586Z,21.88
2023-02-19T19:00:01.488Z,20.45
2023-02-19T19:02:33.745Z,21.00
2023-02-19T19:05:06.350Z,21.50
2023-02-19T19:07:33.018Z,21.45
2023-02-19T19:10:01.904Z,21.13
2023-02-19T19:12:30.790Z,20.25
2023-02-19T19:15:00.433Z,19.88
2023-02-19T19:17:27.153Z,20.98
2023-02-19T19:19:56.484Z,21.27
2023-02-19T19:22:25.263Z,20.30
2023-02-19T19:24:54.319Z,20.27
2023-02-19T19:27:21.064Z,19.33
2023-02-19T19:29:50.141Z,21.52
2023-02-19T19:32:19.220Z,20.48
2023-02-19T19:34:48.286Z,19.63
2023-02-19T19:37:19.595Z,19.17
2023-02-19T19:39:46.195Z,18.42
2023-02-19T19:42:12.939Z,19.02
2023-02-19T19:44:39.836Z,19.60
2023-02-19T19:47:06.475Z,20.48
2023-02-19T19:49:35.228Z,19.73
2023-02-19T19:52:05.054Z,21.63
2023-02-19T19:54:34.055Z,21.83
2023-02-19T19:57:03.475Z,24.35
2023-02-19T19:59:32.424Z,24.05
2023-02-19T20:01:59.278Z,24.98
2023-02-19T20:04:28.083Z,25.35
2023-02-19T20:06:56.914Z,25.60
2023-02-19T20:09:29.973Z,26.95
2023-02-19T20:11:56.800Z,30.45
2023-02-19T20:14:23.653Z,32.65
2023-02-19T20:16:50.686Z,31.80
2023-02-19T20:19:20.620Z,34.08
2023-02-19T20:21:53.749Z,36.53
2023-02-19T20:24:26.058Z,35.45
2023-02-19T20:26:58.679Z,36.65
2023-02-19T20:29:27.916Z,37.20
2023-02-19T20:31:57.448Z,37.17
2023-02-19T20:34:24.208Z,40.65
2023-02-19T20:36:53.460Z,40.60
2023-02-19T20:39:28.650Z,39.78
2023-02-19T20:41:57.758Z,41.65
2023-02-19T20:44:27.232Z,41.53
2023-02-19T20:46:54.012Z,43.80
2023-02-19T20:49:22.507Z,42.95
2023-02-19T20:52:02.396Z,42.85
2023-02-19T20:54:30.725Z,46.42
2023-02-19T20:56:59.922Z,48.22
2023-02-19T20:59:30.943Z,49.35
2023-02-19T21:01:58.580Z,48.15
2023-02-19T21:04:27.699Z,48.17
2023-02-19T21:06:54.440Z,49.20
2023-02-19T21:09:21.701Z,48.78
2023-02-19T21:11:48.708Z,46.60
2023-02-19T21:14:15.496Z,47.00
2023-02-19T21:16:44.346Z,48.75
2023-02-19T21:19:13.207Z,48.95
2023-02-19T21:21:42.087Z,48.60
2023-02-19T21:24:13.073Z,51.80
2023-02-19T21:26:40.197Z,52.90
2023-02-19T21:29:10.654Z,57.55
2023-02-19T21:31:44.585Z,54.90
2023-02-19T21:34:13.103Z,58.00
2023-02-19T21:36:39.849Z,56.95
2023-02-19T21:39:07.318Z,60.53
2023-02-19T21:41:36.118Z,58.95
2023-02-19T21:44:02.854Z,60.00
2023-02-19T21:46:29.507Z,60.85
2023-02-19T21:48:56.430Z,59.20
2023-02-19T21:51:31.815Z,60.83
2023-02-19T21:53:58.828Z,60.28
2023-02-19T21:56:30.185Z,62.45
2023-02-19T21:58:59.036Z,61.88
2023-02-19T22:01:31.689Z,61.83
2023-02-19T22:04:01.032Z,62.17
2023-02-19T22:06:30.887Z,60.40
2023-02-19T22:08:58.262Z,60.22
2023-02-19T22:11:25.013Z,59.83
2023-02-19T22:13:51.751Z,59.75
2023-02-19T22:16:20.768Z,59.40
2023-02-19T22:18:51.398Z,56.45
2023-02-19T22:21:20.806Z,56.78
2023-02-19T22:23:50.066Z,56.95
2023-02-19T22:26:18.862Z,54.65
2023-02-19T22:28:47.708Z,56.15
2023-02-19T22:31:18.238Z,58.42
2023-02-19T22:33:49.602Z,53.70
2023-02-19T22:36:16.849Z,54.38
2023-02-19T22:38:43.540Z,55.28
2023-02-19T22:41:12.349Z,51.60
2023-02-19T22:43:43.774Z,52.38
2023-02-19T22:46:14.828Z,49.78
2023-02-19T22:48:46.477Z,48.20
2023-02-19T22:51:14.906Z,47.72
2023-02-19T22:53:44.789Z,48.25
2023-02-19T22:56:18.130Z,46.75
2023-02-19T22:58:49.499Z,48.08
2023-02-19T23:01:16.225Z,44.60
2023-02-19T23:03:52.570Z,46.35
2023-02-19T23:06:25.006Z,43.58
2023-02-19T23:08:52.598Z,45.83
2023-02-19T23:11:29.702Z,45.28
2023-02-19T23:13:59.219Z,44.85
2023-02-19T23:16:28.476Z,45.40
2023-02-19T23:18:55.258Z,42.72
2023-02-19T23:21:22.160Z,43.08
2023-02-19T23:23:48.856Z,43.33
2023-02-19T23:26:15.990Z,41.60
2023-02-19T23:28:42.846Z,43.45
2023-02-19T23:31:11.729Z,41.75
2023-02-19T23:33:40.888Z,41.83
2023-02-19T23:36:08.197Z,43.38
2023-02-19T23:38:37.221Z,41.47
2023-02-19T23:41:04.118Z,40.58
2023-02-19T23:43:33.043Z,40.78
2023-02-19T23:46:01.897Z,40.55
2023-02-19T23:48:30.983Z,39.95
2023-02-19T23:50:57.617Z,38.90
2023-02-19T23:53:27.091Z,40.38
2023-02-19T23:55:53.710Z,40.72
2023-02-19T23:58:22.536Z,40.83
